sensor_id;sensor_type;location;lat;lon;timestamp;temperature;humidity
11246;DHT22;59870;50.106;8.580;2023-08-12T00:02:16;25.30;89.80
11246;DHT22;59870;50.106;8.580;2023-08-12T00:04:45;25.40;90.10
11246;DHT22;59870;50.106;8.580;2023-08-12T00:07:13;25.20;90.10
11246;DHT22;59870;50.106;8.580;2023-08-12T00:09:40;25.10;90.20
11246;DHT22;59870;50.106;8.580;2023-08-12T00:12:07;25.10;90.30
11246;DHT22;59870;50.106;8.580;2023-08-12T00:14:35;25.10;90.30
11246;DHT22;59870;50.106;8.580;2023-08-12T00:17:03;25.10;90.40
11246;DHT22;59870;50.106;8.580;2023-08-12T00:19:30;25.10;90.50
11246;DHT22;59870;50.106;8.580;2023-08-12T00:21:57;25.00;90.60
11246;DHT22;59870;50.106;8.580;2023-08-12T00:24:25;25.30;90.80
11246;DHT22;59870;50.106;8.580;2023-08-12T00:26:52;25.30;90.90
11246;DHT22;59870;50.106;8.580;2023-08-12T00:29:20;25.00;90.90
11246;DHT22;59870;50.106;8.580;2023-08-12T00:31:47;25.30;91.00
11246;DHT22;59870;50.106;8.580;2023-08-12T00:34:16;24.90;91.10
11246;DHT22;59870;50.106;8.580;2023-08-12T00:36:44;25.00;91.20
11246;DHT22;59870;50.106;8.580;2023-08-12T00:39:12;25.10;91.30
11246;DHT22;59870;50.106;8.580;2023-08-12T00:41:39;25.10;91.50
11246;DHT22;59870;50.106;8.580;2023-08-12T00:44:06;24.90;91.40
11246;DHT22;59870;50.106;8.580;2023-08-12T00:46:35;24.80;91.60
11246;DHT22;59870;50.106;8.580;2023-08-12T00:49:04;24.90;91.80
11246;DHT22;59870;50.106;8.580;2023-08-12T00:51:32;24.80;91.80
11246;DHT22;59870;50.106;8.580;2023-08-12T00:54:05;24.80;92.00
11246;DHT22;59870;50.106;8.580;2023-08-12T00:56:35;24.80;92.00
11246;DHT22;59870;50.106;8.580;2023-08-12T00:59:05;24.80;92.10
11246;DHT22;59870;50.106;8.580;2023-08-12T01:01:35;24.80;92.20
11246;DHT22;59870;50.106;8.580;2023-08-12T01:04:03;24.80;92.40
11246;DHT22;59870;50.106;8.580;2023-08-12T01:06:30;24.70;92.40
11246;DHT22;59870;50.106;8.580;2023-08-12T01:08:58;24.70;92.50
11246;DHT22;59870;50.106;8.580;2023-08-12T01:11:32;25.00;92.60
11246;DHT22;59870;50.106;8.580;2023-08-12T01:17:09;24.70;92.10
11246;DHT22;59870;50.106;8.580;2023-08-12T01:19:40;24.90;92.50
11246;DHT22;59870;50.106;8.580;2023-08-12T01:22:09;24.80;92.40
11246;DHT22;59870;50.106;8.580;2023-08-12T01:24:39;24.60;92.40
11246;DHT22;59870;50.106;8.580;2023-08-12T01:27:09;24.90;92.50
11246;DHT22;59870;50.106;8.580;2023-08-12T01:29:41;24.60;92.40
11246;DHT22;59870;50.106;8.580;2023-08-12T01:35:03;24.90;92.80
11246;DHT22;59870;50.106;8.580;2023-08-12T01:37:32;24.60;92.80
11246;DHT22;59870;50.106;8.580;2023-08-12T01:40:02;24.60;92.80
11246;DHT22;59870;50.106;8.580;2023-08-12T01:42:33;24.60;93.00
11246;DHT22;59870;50.106;8.580;2023-08-12T01:45:02;24.60;93.10
11246;DHT22;59870;50.106;8.580;2023-08-12T01:47:30;24.80;93.10
11246;DHT22;59870;50.106;8.580;2023-08-12T01:49:59;24.60;92.80
11246;DHT22;59870;50.106;8.580;2023-08-12T01:52:27;24.60;92.90
11246;DHT22;59870;50.106;8.580;2023-08-12T01:54:55;24.60;92.90
11246;DHT22;59870;50.106;8.580;2023-08-12T01:57:22;24.60;92.90
11246;DHT22;59870;50.106;8.580;2023-08-12T01:59:50;24.60;93.00
11246;DHT22;59870;50.106;8.580;2023-08-12T02:02:18;24.60;92.80
11246;DHT22;59870;50.106;8.580;2023-08-12T02:04:46;24.60;92.70
11246;DHT22;59870;50.106;8.580;2023-08-12T02:07:14;24.60;92.80
11246;DHT22;59870;50.106;8.580;2023-08-12T02:09:41;24.90;92.90
11246;DHT22;59870;50.106;8.580;2023-08-12T02:12:08;24.60;92.90
11246;DHT22;59870;50.106;8.580;2023-08-12T02:14:36;24.60;93.00
11246;DHT22;59870;50.106;8.580;2023-08-12T02:17:04;24.90;93.30
11246;DHT22;59870;50.106;8.580;2023-08-12T02:19:34;24.80;93.20
11246;DHT22;59870;50.106;8.580;2023-08-12T02:22:02;24.60;93.10
11246;DHT22;59870;50.106;8.580;2023-08-12T02:24:31;24.60;93.20
11246;DHT22;59870;50.106;8.580;2023-08-12T02:26:58;24.60;93.20
11246;DHT22;59870;50.106;8.580;2023-08-12T02:29:26;24.60;93.40
11246;DHT22;59870;50.106;8.580;2023-08-12T02:31:53;24.60;93.50
11246;DHT22;59870;50.106;8.580;2023-08-12T02:34:21;24.90;93.90
11246;DHT22;59870;50.106;8.580;2023-08-12T02:36:51;24.60;93.90
11246;DHT22;59870;50.106;8.580;2023-08-12T02:39:19;24.70;94.00
11246;DHT22;59870;50.106;8.580;2023-08-12T02:41:46;24.60;94.10
11246;DHT22;59870;50.106;8.580;2023-08-12T02:44:14;24.60;94.10
11246;DHT22;59870;50.106;8.580;2023-08-12T02:46:42;24.60;94.10
11246;DHT22;59870;50.106;8.580;2023-08-12T02:49:09;24.70;94.50
11246;DHT22;59870;50.106;8.580;2023-08-12T02:51:37;24.70;94.30
11246;DHT22;59870;50.106;8.580;2023-08-12T02:54:05;24.90;94.60
11246;DHT22;59870;50.106;8.580;2023-08-12T02:56:32;24.60;94.70
11246;DHT22;59870;50.106;8.580;2023-08-12T02:58:59;24.60;95.10
11246;DHT22;59870;50.106;8.580;2023-08-12T03:01:27;24.80;95.40
11246;DHT22;59870;50.106;8.580;2023-08-12T03:03:55;24.60;95.50
11246;DHT22;59870;50.106;8.580;2023-08-12T03:06:23;24.70;95.80
11246;DHT22;59870;50.106;8.580;2023-08-12T03:08:50;24.60;96.00
11246;DHT22;59870;50.106;8.580;2023-08-12T03:11:18;24.80;96.10
11246;DHT22;59870;50.106;8.580;2023-08-12T03:13:46;24.50;96.10
11246;DHT22;59870;50.106;8.580;2023-08-12T03:16:14;24.60;96.20
11246;DHT22;59870;50.106;8.580;2023-08-12T03:18:45;24.50;96.20
11246;DHT22;59870;50.106;8.580;2023-08-12T03:21:12;24.50;96.30
11246;DHT22;59870;50.106;8.580;2023-08-12T03:23:40;24.50;96.40
11246;DHT22;59870;50.106;8.580;2023-08-12T03:26:09;24.50;96.50
11246;DHT22;59870;50.106;8.580;2023-08-12T03:28:36;24.40;96.60
11246;DHT22;59870;50.106;8.580;2023-08-12T03:31:04;24.50;96.90
11246;DHT22;59870;50.106;8.580;2023-08-12T03:33:33;24.50;97.10
11246;DHT22;59870;50.106;8.580;2023-08-12T03:36:02;24.50;97.30
11246;DHT22;59870;50.106;8.580;2023-08-12T03:38:30;24.50;97.30
11246;DHT22;59870;50.106;8.580;2023-08-12T03:40:57;24.50;97.50
11246;DHT22;59870;50.106;8.580;2023-08-12T03:43:26;24.80;97.60
11246;DHT22;59870;50.106;8.580;2023-08-12T03:45:53;24.60;97.60
11246;DHT22;59870;50.106;8.580;2023-08-12T03:48:21;24.50;97.90
11246;DHT22;59870;50.106;8.580;2023-08-12T03:50:49;24.60;97.90
11246;DHT22;59870;50.106;8.580;2023-08-12T03:53:17;24.60;98.00
11246;DHT22;59870;50.106;8.580;2023-08-12T03:55:45;24.60;98.00
11246;DHT22;59870;50.106;8.580;2023-08-12T03:58:15;24.60;98.00
11246;DHT22;59870;50.106;8.580;2023-08-12T04:00:45;24.60;98.20
11246;DHT22;59870;50.106;8.580;2023-08-12T04:03:14;24.60;98.10
11246;DHT22;59870;50.106;8.580;2023-08-12T04:05:49;24.60;98.10
11246;DHT22;59870;50.106;8.580;2023-08-12T04:08:22;24.60;98.10
11246;DHT22;59870;50.106;8.580;2023-08-12T04:10:50;24.60;98.30
11246;DHT22;59870;50.106;8.580;2023-08-12T04:13:18;24.60;98.20
11246;DHT22;59870;50.106;8.580;2023-08-12T04:15:49;24.50;98.00
11246;DHT22;59870;50.106;8.580;2023-08-12T04:18:18;24.40;98.10
11246;DHT22;59870;50.106;8.580;2023-08-12T04:20:47;24.70;98.40
11246;DHT22;59870;50.106;8.580;2023-08-12T04:23:15;24.60;98.50
11246;DHT22;59870;50.106;8.580;2023-08-12T04:25:44;24.20;98.40
11246;DHT22;59870;50.106;8.580;2023-08-12T04:28:13;24.10;98.40
11246;DHT22;59870;50.106;8.580;2023-08-12T04:30:42;24.10;98.40
11246;DHT22;59870;50.106;8.580;2023-08-12T04:33:10;24.10;98.30
11246;DHT22;59870;50.106;8.580;2023-08-12T04:35:38;24.20;98.40
11246;DHT22;59870;50.106;8.580;2023-08-12T04:38:07;24.20;98.40
11246;DHT22;59870;50.106;8.580;2023-08-12T04:40:38;24.40;98.50
11246;DHT22;59870;50.106;8.580;2023-08-12T04:43:10;24.20;98.30
11246;DHT22;59870;50.106;8.580;2023-08-12T04:45:38;24.20;98.30
11246;DHT22;59870;50.106;8.580;2023-08-12T04:48:07;24.10;98.50
11246;DHT22;59870;50.106;8.580;2023-08-12T04:50:36;24.40;98.60
11246;DHT22;59870;50.106;8.580;2023-08-12T04:53:04;24.10;98.60
11246;DHT22;59870;50.106;8.580;2023-08-12T04:55:33;24.20;98.60
11246;DHT22;59870;50.106;8.580;2023-08-12T04:58:02;24.10;98.70
11246;DHT22;59870;50.106;8.580;2023-08-12T05:00:30;24.10;98.80
11246;DHT22;59870;50.106;8.580;2023-08-12T05:02:58;24.10;98.80
11246;DHT22;59870;50.106;8.580;2023-08-12T05:05:26;24.10;98.90
11246;DHT22;59870;50.106;8.580;2023-08-12T05:07:54;24.10;98.90
11246;DHT22;59870;50.106;8.580;2023-08-12T05:10:22;24.10;99.00
11246;DHT22;59870;50.106;8.580;2023-08-12T05:12:51;24.00;99.10
11246;DHT22;59870;50.106;8.580;2023-08-12T05:15:21;24.10;99.10
11246;DHT22;59870;50.106;8.580;2023-08-12T05:17:49;24.10;99.30
11246;DHT22;59870;50.106;8.580;2023-08-12T05:20:20;24.10;99.50
11246;DHT22;59870;50.106;8.580;2023-08-12T05:22:48;24.20;99.50
11246;DHT22;59870;50.106;8.580;2023-08-12T05:25:16;24.20;99.50
11246;DHT22;59870;50.106;8.580;2023-08-12T05:27:43;24.40;99.90
11246;DHT22;59870;50.106;8.580;2023-08-12T05:30:11;24.10;99.80
11246;DHT22;59870;50.106;8.580;2023-08-12T05:32:39;24.10;99.90
11246;DHT22;59870;50.106;8.580;2023-08-12T05:35:07;24.10;99.90
11246;DHT22;59870;50.106;8.580;2023-08-12T05:37:34;24.40;99.90
11246;DHT22;59870;50.106;8.580;2023-08-12T05:40:02;24.20;99.90
11246;DHT22;59870;50.106;8.580;2023-08-12T05:42:31;24.20;99.90
11246;DHT22;59870;50.106;8.580;2023-08-12T05:44:59;24.10;99.90
11246;DHT22;59870;50.106;8.580;2023-08-12T05:47:26;24.10;99.90
11246;DHT22;59870;50.106;8.580;2023-08-12T05:49:54;24.10;99.90
11246;DHT22;59870;50.106;8.580;2023-08-12T05:52:21;24.20;99.90
11246;DHT22;59870;50.106;8.580;2023-08-12T05:54:49;24.20;99.90
11246;DHT22;59870;50.106;8.580;2023-08-12T05:57:16;24.20;99.90
11246;DHT22;59870;50.106;8.580;2023-08-12T05:59:43;24.30;99.90
11246;DHT22;59870;50.106;8.580;2023-08-12T06:02:11;24.60;99.90
11246;DHT22;59870;50.106;8.580;2023-08-12T06:04:39;24.30;99.60
11246;DHT22;59870;50.106;8.580;2023-08-12T06:07:06;24.30;99.90
11246;DHT22;59870;50.106;8.580;2023-08-12T06:09:34;24.40;99.90
11246;DHT22;59870;50.106;8.580;2023-08-12T06:12:01;24.40;99.70
11246;DHT22;59870;50.106;8.580;2023-08-12T06:14:29;24.50;99.80
11246;DHT22;59870;50.106;8.580;2023-08-12T06:16:56;24.80;99.70
11246;DHT22;59870;50.106;8.580;2023-08-12T06:19:25;24.60;99.30
11246;DHT22;59870;50.106;8.580;2023-08-12T06:21:53;24.70;99.50
11246;DHT22;59870;50.106;8.580;2023-08-12T06:24:20;25.10;99.60
11246;DHT22;59870;50.106;8.580;2023-08-12T06:26:48;25.10;98.80
11246;DHT22;59870;50.106;8.580;2023-08-12T06:29:15;25.10;98.90
11246;DHT22;59870;50.106;8.580;2023-08-12T06:31:43;25.40;98.90
11246;DHT22;59870;50.106;8.580;2023-08-12T06:34:11;25.40;98.70
11246;DHT22;59870;50.106;8.580;2023-08-12T06:36:38;25.50;98.00
11246;DHT22;59870;50.106;8.580;2023-08-12T06:39:06;25.90;98.00
11246;DHT22;59870;50.106;8.580;2023-08-12T06:41:33;25.70;97.30
11246;DHT22;59870;50.106;8.580;2023-08-12T06:44:01;25.80;97.00
11246;DHT22;59870;50.106;8.580;2023-08-12T06:46:29;25.90;96.80
11246;DHT22;59870;50.106;8.580;2023-08-12T06:48:58;26.20;97.10
11246;DHT22;59870;50.106;8.580;2023-08-12T06:51:26;26.40;97.10
11246;DHT22;59870;50.106;8.580;2023-08-12T06:53:55;26.10;96.30
11246;DHT22;59870;50.106;8.580;2023-08-12T06:56:22;26.50;96.20
11246;DHT22;59870;50.106;8.580;2023-08-12T06:58:49;26.30;96.00
11246;DHT22;59870;50.106;8.580;2023-08-12T07:01:17;26.40;95.70
11246;DHT22;59870;50.106;8.580;2023-08-12T07:03:45;26.80;95.90
11246;DHT22;59870;50.106;8.580;2023-08-12T07:06:13;26.70;95.80
11246;DHT22;59870;50.106;8.580;2023-08-12T07:08:40;26.80;95.60
11246;DHT22;59870;50.106;8.580;2023-08-12T07:11:09;26.90;95.50
11246;DHT22;59870;50.106;8.580;2023-08-12T07:13:36;27.00;95.30
11246;DHT22;59870;50.106;8.580;2023-08-12T07:16:04;27.10;95.30
11246;DHT22;59870;50.106;8.580;2023-08-12T07:18:32;27.30;96.30
11246;DHT22;59870;50.106;8.580;2023-08-12T07:21:00;27.60;95.60
11246;DHT22;59870;50.106;8.580;2023-08-12T07:23:28;27.60;95.40
11246;DHT22;59870;50.106;8.580;2023-08-12T07:25:56;27.80;94.80
11246;DHT22;59870;50.106;8.580;2023-08-12T07:28:23;27.90;94.60
11246;DHT22;59870;50.106;8.580;2023-08-12T07:30:51;28.00;94.40
11246;DHT22;59870;50.106;8.580;2023-08-12T07:33:20;28.20;94.30
11246;DHT22;59870;50.106;8.580;2023-08-12T07:35:50;28.40;94.30
11246;DHT22;59870;50.106;8.580;2023-08-12T07:38:18;28.90;94.00
11246;DHT22;59870;50.106;8.580;2023-08-12T07:40:46;29.20;93.30
11246;DHT22;59870;50.106;8.580;2023-08-12T07:43:14;29.10;92.00
11246;DHT22;59870;50.106;8.580;2023-08-12T07:45:44;29.40;92.30
11246;DHT22;59870;50.106;8.580;2023-08-12T07:48:18;29.60;92.30
11246;DHT22;59870;50.106;8.580;2023-08-12T07:50:56;29.80;91.80
11246;DHT22;59870;50.106;8.580;2023-08-12T07:53:27;30.20;92.00
11246;DHT22;59870;50.106;8.580;2023-08-12T07:55:54;30.50;90.20
11246;DHT22;59870;50.106;8.580;2023-08-12T07:58:22;31.10;90.20
11246;DHT22;59870;50.106;8.580;2023-08-12T08:00:53;31.10;89.20
11246;DHT22;59870;50.106;8.580;2023-08-12T08:03:21;31.40;88.00
11246;DHT22;59870;50.106;8.580;2023-08-12T08:05:49;31.80;87.70
11246;DHT22;59870;50.106;8.580;2023-08-12T08:08:17;32.10;85.80
11246;DHT22;59870;50.106;8.580;2023-08-12T08:10:45;32.30;83.90
11246;DHT22;59870;50.106;8.580;2023-08-12T08:13:13;32.60;83.90
11246;DHT22;59870;50.106;8.580;2023-08-12T08:15:40;32.80;82.50
11246;DHT22;59870;50.106;8.580;2023-08-12T08:18:08;32.60;81.20
11246;DHT22;59870;50.106;8.580;2023-08-12T08:20:35;32.70;81.10
11246;DHT22;59870;50.106;8.580;2023-08-12T08:23:03;32.80;80.80
11246;DHT22;59870;50.106;8.580;2023-08-12T08:25:31;32.80;79.70
11246;DHT22;59870;50.106;8.580;2023-08-12T08:27:59;32.80;80.10
11246;DHT22;59870;50.106;8.580;2023-08-12T08:30:27;32.90;80.60
11246;DHT22;59870;50.106;8.580;2023-08-12T08:32:55;33.00;80.20
11246;DHT22;59870;50.106;8.580;2023-08-12T08:35:22;33.10;80.40
11246;DHT22;59870;50.106;8.580;2023-08-12T08:37:50;33.20;79.70
11246;DHT22;59870;50.106;8.580;2023-08-12T08:40:18;33.30;78.90
11246;DHT22;59870;50.106;8.580;2023-08-12T08:42:51;33.50;77.40
11246;DHT22;59870;50.106;8.580;2023-08-12T08:45:23;33.40;77.80
11246;DHT22;59870;50.106;8.580;2023-08-12T08:47:51;33.70;78.00
11246;DHT22;59870;50.106;8.580;2023-08-12T08:50:20;33.90;76.70
11246;DHT22;59870;50.106;8.580;2023-08-12T08:52:51;34.20;77.30
11246;DHT22;59870;50.106;8.580;2023-08-12T08:55:19;34.40;76.50
11246;DHT22;59870;50.106;8.580;2023-08-12T08:57:50;34.60;76.10
11246;DHT22;59870;50.106;8.580;2023-08-12T09:00:19;34.90;74.40
11246;DHT22;59870;50.106;8.580;2023-08-12T09:02:53;35.20;72.60
11246;DHT22;59870;50.106;8.580;2023-08-12T09:05:25;35.40;71.10
11246;DHT22;59870;50.106;8.580;2023-08-12T09:07:54;35.60;71.60
11246;DHT22;59870;50.106;8.580;2023-08-12T09:10:23;35.60;69.20
11246;DHT22;59870;50.106;8.580;2023-08-12T09:12:57;35.60;68.70
11246;DHT22;59870;50.106;8.580;2023-08-12T09:15:24;35.60;70.30
11246;DHT22;59870;50.106;8.580;2023-08-12T09:17:54;35.60;70.80
11246;DHT22;59870;50.106;8.580;2023-08-12T09:20:22;35.50;67.20
11246;DHT22;59870;50.106;8.580;2023-08-12T09:22:58;35.50;70.00
11246;DHT22;59870;50.106;8.580;2023-08-12T09:25:27;35.50;71.40
11246;DHT22;59870;50.106;8.580;2023-08-12T09:27:59;35.40;69.80
11246;DHT22;59870;50.106;8.580;2023-08-12T09:30:31;35.20;69.50
11246;DHT22;59870;50.106;8.580;2023-08-12T09:33:01;35.10;68.90
11246;DHT22;59870;50.106;8.580;2023-08-12T09:35:41;35.00;70.50
11246;DHT22;59870;50.106;8.580;2023-08-12T09:38:12;34.70;68.70
11246;DHT22;59870;50.106;8.580;2023-08-12T09:40:41;34.40;69.60
11246;DHT22;59870;50.106;8.580;2023-08-12T09:43:09;34.30;70.40
11246;DHT22;59870;50.106;8.580;2023-08-12T09:45:39;34.20;73.20
11246;DHT22;59870;50.106;8.580;2023-08-12T09:48:09;34.30;71.20
11246;DHT22;59870;50.106;8.580;2023-08-12T09:50:37;34.00;72.20
11246;DHT22;59870;50.106;8.580;2023-08-12T09:53:05;33.90;71.90
11246;DHT22;59870;50.106;8.580;2023-08-12T09:55:34;34.00;73.60
11246;DHT22;59870;50.106;8.580;2023-08-12T09:58:05;34.00;73.20
11246;DHT22;59870;50.106;8.580;2023-08-12T10:00:34;33.90;73.40
11246;DHT22;59870;50.106;8.580;2023-08-12T10:03:02;33.90;73.40
11246;DHT22;59870;50.106;8.580;2023-08-12T10:05:33;34.00;72.70
11246;DHT22;59870;50.106;8.580;2023-08-12T10:08:02;33.90;72.80
11246;DHT22;59870;50.106;8.580;2023-08-12T10:10:34;33.90;72.70
11246;DHT22;59870;50.106;8.580;2023-08-12T10:13:02;33.80;71.30
11246;DHT22;59870;50.106;8.580;2023-08-12T10:15:30;33.70;71.40
11246;DHT22;59870;50.106;8.580;2023-08-12T10:17:58;33.50;69.60
11246;DHT22;59870;50.106;8.580;2023-08-12T10:20:27;33.30;72.40
11246;DHT22;59870;50.106;8.580;2023-08-12T10:22:59;32.90;73.00
11246;DHT22;59870;50.106;8.580;2023-08-12T10:25:32;32.90;75.00
11246;DHT22;59870;50.106;8.580;2023-08-12T10:28:00;32.80;76.50
11246;DHT22;59870;50.106;8.580;2023-08-12T10:30:29;32.60;80.10
11246;DHT22;59870;50.106;8.580;2023-08-12T10:32:58;32.60;80.10
11246;DHT22;59870;50.106;8.580;2023-08-12T10:35:48;32.40;81.70
11246;DHT22;59870;50.106;8.580;2023-08-12T10:38:25;32.20;80.50
11246;DHT22;59870;50.106;8.580;2023-08-12T10:41:28;32.30;82.40
11246;DHT22;59870;50.106;8.580;2023-08-12T10:44:05;31.90;81.40
11246;DHT22;59870;50.106;8.580;2023-08-12T10:47:05;31.70;83.20
11246;DHT22;59870;50.106;8.580;2023-08-12T10:49:59;31.50;83.50
11246;DHT22;59870;50.106;8.580;2023-08-12T10:52:29;31.50;85.30
11246;DHT22;59870;50.106;8.580;2023-08-12T10:55:23;31.30;86.60
11246;DHT22;59870;50.106;8.580;2023-08-12T10:57:57;31.30;86.20
11246;DHT22;59870;50.106;8.580;2023-08-12T11:00:29;31.10;87.60
11246;DHT22;59870;50.106;8.580;2023-08-12T11:03:05;30.80;88.50
11246;DHT22;59870;50.106;8.580;2023-08-12T11:05:37;30.70;89.60
11246;DHT22;59870;50.106;8.580;2023-08-12T11:08:05;30.60;90.00
11246;DHT22;59870;50.106;8.580;2023-08-12T11:10:39;30.50;90.30
11246;DHT22;59870;50.106;8.580;2023-08-12T11:13:08;30.40;90.00
11246;DHT22;59870;50.106;8.580;2023-08-12T11:15:43;30.00;89.80
11246;DHT22;59870;50.106;8.580;2023-08-12T11:18:39;30.10;90.70
11246;DHT22;59870;50.106;8.580;2023-08-12T11:21:09;29.70;90.60
11246;DHT22;59870;50.106;8.580;2023-08-12T11:23:37;29.80;91.30
11246;DHT22;59870;50.106;8.580;2023-08-12T11:26:06;29.80;91.80
11246;DHT22;59870;50.106;8.580;2023-08-12T11:28:37;29.40;91.80
11246;DHT22;59870;50.106;8.580;2023-08-12T11:31:05;29.20;92.00
11246;DHT22;59870;50.106;8.580;2023-08-12T11:33:32;29.30;92.80
11246;DHT22;59870;50.106;8.580;2023-08-12T11:36:01;29.00;93.10
11246;DHT22;59870;50.106;8.580;2023-08-12T11:38:28;29.00;93.30
11246;DHT22;59870;50.106;8.580;2023-08-12T11:41:03;29.10;93.40
11246;DHT22;59870;50.106;8.580;2023-08-12T11:43:34;28.70;93.30
11246;DHT22;59870;50.106;8.580;2023-08-12T11:46:04;28.70;93.30
11246;DHT22;59870;50.106;8.580;2023-08-12T11:48:32;28.60;93.70
11246;DHT22;59870;50.106;8.580;2023-08-12T11:51:00;28.50;94.60
11246;DHT22;59870;50.106;8.580;2023-08-12T11:53:28;28.70;95.00
11246;DHT22;59870;50.106;8.580;2023-08-12T11:55:56;28.60;95.10
11246;DHT22;59870;50.106;8.580;2023-08-12T11:58:23;28.60;95.30
11246;DHT22;59870;50.106;8.580;2023-08-12T12:00:52;28.70;95.50
11246;DHT22;59870;50.106;8.580;2023-08-12T12:03:20;28.50;95.70
11246;DHT22;59870;50.106;8.580;2023-08-12T12:05:55;28.90;95.40
11246;DHT22;59870;50.106;8.580;2023-08-12T12:08:31;28.70;95.70
11246;DHT22;59870;50.106;8.580;2023-08-12T12:11:06;28.50;95.40
11246;DHT22;59870;50.106;8.580;2023-08-12T12:13:34;28.70;95.80
11246;DHT22;59870;50.106;8.580;2023-08-12T12:16:02;28.70;95.70
11246;DHT22;59870;50.106;8.580;2023-08-12T12:18:35;28.40;95.50
11246;DHT22;59870;50.106;8.580;2023-08-12T12:21:03;28.60;96.00
11246;DHT22;59870;50.106;8.580;2023-08-12T12:23:31;28.50;96.00
11246;DHT22;59870;50.106;8.580;2023-08-12T12:26:03;28.40;95.90
11246;DHT22;59870;50.106;8.580;2023-08-12T12:28:31;28.40;96.20
11246;DHT22;59870;50.106;8.580;2023-08-12T12:31:01;28.40;96.30
11246;DHT22;59870;50.106;8.580;2023-08-12T12:33:29;28.60;96.40
11246;DHT22;59870;50.106;8.580;2023-08-12T12:35:58;28.30;96.30
11246;DHT22;59870;50.106;8.580;2023-08-12T12:38:29;28.50;96.10
11246;DHT22;59870;50.106;8.580;2023-08-12T12:40:57;28.50;96.70
11246;DHT22;59870;50.106;8.580;2023-08-12T12:43:26;28.60;96.10
11246;DHT22;59870;50.106;8.580;2023-08-12T12:45:53;28.40;96.20
11246;DHT22;59870;50.106;8.580;2023-08-12T12:48:21;28.40;96.80
11246;DHT22;59870;50.106;8.580;2023-08-12T12:50:49;28.50;97.20
11246;DHT22;59870;50.106;8.580;2023-08-12T12:53:24;28.50;96.50
11246;DHT22;59870;50.106;8.580;2023-08-12T12:55:55;28.50;95.90
11246;DHT22;59870;50.106;8.580;2023-08-12T12:58:24;28.60;95.80
11246;DHT22;59870;50.106;8.580;2023-08-12T13:00:52;28.60;95.80
11246;DHT22;59870;50.106;8.580;2023-08-12T13:03:20;28.90;96.10
11246;DHT22;59870;50.106;8.580;2023-08-12T13:05:51;28.70;95.80
11246;DHT22;59870;50.106;8.580;2023-08-12T13:08:19;28.90;95.50
11246;DHT22;59870;50.106;8.580;2023-08-12T13:10:46;28.90;94.80
11246;DHT22;59870;50.106;8.580;2023-08-12T13:13:15;28.90;94.70
11246;DHT22;59870;50.106;8.580;2023-08-12T13:15:46;29.20;94.90
11246;DHT22;59870;50.106;8.580;2023-08-12T13:18:15;29.00;94.50
11246;DHT22;59870;50.106;8.580;2023-08-12T13:20:42;29.10;94.00
11246;DHT22;59870;50.106;8.580;2023-08-12T13:23:11;29.00;95.00
11246;DHT22;59870;50.106;8.580;2023-08-12T13:25:41;29.00;94.60
11246;DHT22;59870;50.106;8.580;2023-08-12T13:28:09;29.10;94.50
11246;DHT22;59870;50.106;8.580;2023-08-12T13:30:37;29.00;94.90
11246;DHT22;59870;50.106;8.580;2023-08-12T13:33:05;29.00;94.80
11246;DHT22;59870;50.106;8.580;2023-08-12T13:35:32;29.00;94.60
11246;DHT22;59870;50.106;8.580;2023-08-12T13:38:00;29.10;94.50
11246;DHT22;59870;50.106;8.580;2023-08-12T13:40:27;29.10;95.40
11246;DHT22;59870;50.106;8.580;2023-08-12T13:42:55;29.00;95.00
11246;DHT22;59870;50.106;8.580;2023-08-12T13:45:24;29.20;95.10
11246;DHT22;59870;50.106;8.580;2023-08-12T13:47:52;29.10;93.70
11246;DHT22;59870;50.106;8.580;2023-08-12T13:50:23;29.10;94.70
11246;DHT22;59870;50.106;8.580;2023-08-12T13:52:51;28.90;94.60
11246;DHT22;59870;50.106;8.580;2023-08-12T13:55:21;29.20;94.10
11246;DHT22;59870;50.106;8.580;2023-08-12T13:57:49;29.20;94.10
11246;DHT22;59870;50.106;8.580;2023-08-12T14:00:16;29.50;94.10
11246;DHT22;59870;50.106;8.580;2023-08-12T14:02:44;29.30;93.70
11246;DHT22;59870;50.106;8.580;2023-08-12T14:05:12;29.30;94.00
11246;DHT22;59870;50.106;8.580;2023-08-12T14:07:42;29.50;94.50
11246;DHT22;59870;50.106;8.580;2023-08-12T14:10:10;29.50;93.80
11246;DHT22;59870;50.106;8.580;2023-08-12T14:12:40;29.60;93.80
11246;DHT22;59870;50.106;8.580;2023-08-12T14:15:08;29.60;92.80
11246;DHT22;59870;50.106;8.580;2023-08-12T14:17:36;29.60;92.70
11246;DHT22;59870;50.106;8.580;2023-08-12T14:20:06;29.90;92.60
11246;DHT22;59870;50.106;8.580;2023-08-12T14:22:35;29.70;92.60
11246;DHT22;59870;50.106;8.580;2023-08-12T14:25:03;30.00;92.90
11246;DHT22;59870;50.106;8.580;2023-08-12T14:27:32;29.80;92.70
11246;DHT22;59870;50.106;8.580;2023-08-12T14:30:00;29.80;92.30
11246;DHT22;59870;50.106;8.580;2023-08-12T14:32:28;30.00;92.40
11246;DHT22;59870;50.106;8.580;2023-08-12T14:35:00;30.00;92.30
11246;DHT22;59870;50.106;8.580;2023-08-12T14:37:28;29.90;92.70
11246;DHT22;59870;50.106;8.580;2023-08-12T14:39:56;29.90;92.50
11246;DHT22;59870;50.106;8.580;2023-08-12T14:42:24;30.00;92.50
11246;DHT22;59870;50.106;8.580;2023-08-12T14:44:54;30.00;91.40
11246;DHT22;59870;50.106;8.580;2023-08-12T14:47:22;30.20;92.30
11246;DHT22;59870;50.106;8.580;2023-08-12T14:49:49;29.90;92.40
11246;DHT22;59870;50.106;8.580;2023-08-12T14:52:20;29.90;92.40
11246;DHT22;59870;50.106;8.580;2023-08-12T14:54:48;29.90;92.50
11246;DHT22;59870;50.106;8.580;2023-08-12T14:57:16;29.90;92.10
11246;DHT22;59870;50.106;8.580;2023-08-12T14:59:43;29.80;92.60
11246;DHT22;59870;50.106;8.580;2023-08-12T15:02:11;29.80;92.20
11246;DHT22;59870;50.106;8.580;2023-08-12T15:04:38;29.80;92.50
11246;DHT22;59870;50.106;8.580;2023-08-12T15:07:06;29.80;92.30
11246;DHT22;59870;50.106;8.580;2023-08-12T15:09:34;29.90;91.80
11246;DHT22;59870;50.106;8.580;2023-08-12T15:12:01;29.90;92.40
11246;DHT22;59870;50.106;8.580;2023-08-12T15:14:29;29.90;92.90
11246;DHT22;59870;50.106;8.580;2023-08-12T15:17:00;30.20;92.90
11246;DHT22;59870;50.106;8.580;2023-08-12T15:19:28;30.00;92.30
11246;DHT22;59870;50.106;8.580;2023-08-12T15:21:55;30.10;93.20
11246;DHT22;59870;50.106;8.580;2023-08-12T15:24:25;30.00;91.70
11246;DHT22;59870;50.106;8.580;2023-08-12T15:26:53;30.20;91.90
11246;DHT22;59870;50.106;8.580;2023-08-12T15:29:21;29.80;92.20
11246;DHT22;59870;50.106;8.580;2023-08-12T15:31:49;30.20;91.80
11246;DHT22;59870;50.106;8.580;2023-08-12T15:34:18;30.10;92.50
11246;DHT22;59870;50.106;8.580;2023-08-12T15:36:46;30.10;92.10
11246;DHT22;59870;50.106;8.580;2023-08-12T15:39:16;30.00;92.30
11246;DHT22;59870;50.106;8.580;2023-08-12T15:41:44;30.00;92.50
11246;DHT22;59870;50.106;8.580;2023-08-12T15:44:12;30.00;92.40
11246;DHT22;59870;50.106;8.580;2023-08-12T15:46:40;30.00;92.30
11246;DHT22;59870;50.106;8.580;2023-08-12T15:49:08;30.00;92.70